Terminal Aerodrome Forecast
Issued by NWS

Home | Current Version | Previous Version | Text Only | Print | Product List | Glossary On
Versions: 1 2 3 4 5 6 7 8 9 10 11 12 13 14 15 16 17 18 19 20 21 22 23 24 25 26 27 28 29 30 31 32 33 34
000
FTUS46 KLOX 290543
TAFLAX
TAF
KLAX 290543Z 2906/3012 25007KT P6SM SKC
     FM290700 VRB03KT 6SM BR OVC008
     FM291500 25006KT 6SM HZ OVC012
     FM291900 25010KT P6SM SKC
     FM300500 25006KT P6SM BKN010
     FM300900 VRB03KT P6SM OVC010=

USA.gov is the U.S. government's official web portal to all federal, state and local government web resources and services.